sensor_id;sensor_type;location;lat;lon;timestamp;pressure;altitude;pressure_sealevel;temperature;humidity
73516;BME280;61763;51.416;5.442;2024-02-15T00:01:05;101648.66;;;10.87;100.00
73516;BME280;61763;51.416;5.442;2024-02-15T00:03:31;101650.59;;;10.83;100.00
73516;BME280;61763;51.416;5.442;2024-02-15T00:05:57;101644.31;;;10.83;100.00
73516;BME280;61763;51.416;5.442;2024-02-15T00:08:23;101647.88;;;10.83;100.00
73516;BME280;61763;51.416;5.442;2024-02-15T00:10:53;101641.78;;;10.78;100.00
73516;BME280;61763;51.416;5.442;2024-02-15T00:13:19;101638.31;;;10.75;100.00
73516;BME280;61763;51.416;5.442;2024-02-15T00:15:44;101647.31;;;10.75;100.00
73516;BME280;61763;51.416;5.442;2024-02-15T00:18:14;101648.13;;;10.77;100.00
73516;BME280;61763;51.416;5.442;2024-02-15T00:20:39;101643.19;;;10.89;100.00
73516;BME280;61763;51.416;5.442;2024-02-15T00:23:05;101640.94;;;10.78;100.00
73516;BME280;61763;51.416;5.442;2024-02-15T00:25:32;101629.47;;;10.71;100.00
73516;BME280;61763;51.416;5.442;2024-02-15T00:27:58;101626.84;;;10.69;100.00
73516;BME280;61763;51.416;5.442;2024-02-15T00:30:26;101636.63;;;10.72;100.00
73516;BME280;61763;51.416;5.442;2024-02-15T00:32:52;101634.69;;;10.76;100.00
73516;BME280;61763;51.416;5.442;2024-02-15T00:35:18;101635.81;;;10.70;100.00
73516;BME280;61763;51.416;5.442;2024-02-15T00:37:44;101634.88;;;10.71;100.00
73516;BME280;61763;51.416;5.442;2024-02-15T00:40:13;101632.22;;;10.69;100.00
73516;BME280;61763;51.416;5.442;2024-02-15T00:42:38;101629.59;;;10.68;100.00
73516;BME280;61763;51.416;5.442;2024-02-15T00:45:04;101626.94;;;10.66;100.00
73516;BME280;61763;51.416;5.442;2024-02-15T00:47:30;101621.50;;;10.68;100.00
73516;BME280;61763;51.416;5.442;2024-02-15T00:49:55;101618.84;;;10.66;100.00
73516;BME280;61763;51.416;5.442;2024-02-15T00:52:21;101614.84;;;10.77;100.00
73516;BME280;61763;51.416;5.442;2024-02-15T00:54:47;101626.53;;;10.77;100.00
73516;BME280;61763;51.416;5.442;2024-02-15T00:57:16;101628.66;;;10.69;100.00
73516;BME280;61763;51.416;5.442;2024-02-15T00:59:41;101626.72;;;10.73;100.00
73516;BME280;61763;51.416;5.442;2024-02-15T01:02:06;101620.25;;;10.77;100.00
73516;BME280;61763;51.416;5.442;2024-02-15T01:04:32;101627.13;;;10.85;100.00
73516;BME280;61763;51.416;5.442;2024-02-15T01:06:59;101628.91;;;10.86;100.00
73516;BME280;61763;51.416;5.442;2024-02-15T01:09:24;101628.00;;;10.86;100.00
73516;BME280;61763;51.416;5.442;2024-02-15T01:11:49;101617.31;;;10.83;100.00
73516;BME280;61763;51.416;5.442;2024-02-15T01:14:16;101620.81;;;10.85;100.00
73516;BME280;61763;51.416;5.442;2024-02-15T01:16:42;101612.69;;;10.86;100.00
73516;BME280;61763;51.416;5.442;2024-02-15T01:19:10;101617.31;;;10.83;100.00
73516;BME280;61763;51.416;5.442;2024-02-15T01:21:36;101607.50;;;10.80;100.00
73516;BME280;61763;51.416;5.442;2024-02-15T01:24:02;101610.09;;;10.83;100.00
73516;BME280;61763;51.416;5.442;2024-02-15T01:26:31;101611.22;;;10.78;100.00
73516;BME280;61763;51.416;5.442;2024-02-15T01:28:56;101600.19;;;10.84;100.00
73516;BME280;61763;51.416;5.442;2024-02-15T01:31:22;101607.63;;;10.77;100.00
73516;BME280;61763;51.416;5.442;2024-02-15T01:33:47;101608.75;;;10.72;100.00
73516;BME280;61763;51.416;5.442;2024-02-15T01:36:18;101611.38;;;10.73;100.00
73516;BME280;61763;51.416;5.442;2024-02-15T01:38:44;101595.44;;;10.67;100.00
73516;BME280;61763;51.416;5.442;2024-02-15T01:41:10;101600.72;;;10.70;100.00
73516;BME280;61763;51.416;5.442;2024-02-15T01:43:37;101602.59;;;10.68;100.00
73516;BME280;61763;51.416;5.442;2024-02-15T01:46:07;101595.59;;;10.62;100.00
73516;BME280;61763;51.416;5.442;2024-02-15T01:48:35;101587.00;;;10.76;100.00
73516;BME280;61763;51.416;5.442;2024-02-15T01:51:01;101593.56;;;10.69;100.00
73516;BME280;61763;51.416;5.442;2024-02-15T01:53:29;101580.00;;;10.71;100.00
73516;BME280;61763;51.416;5.442;2024-02-15T01:55:55;101585.22;;;10.75;100.00
73516;BME280;61763;51.416;5.442;2024-02-15T01:58:23;101577.94;;;10.77;100.00
73516;BME280;61763;51.416;5.442;2024-02-15T02:00:49;101584.22;;;10.78;100.00
73516;BME280;61763;51.416;5.442;2024-02-15T02:03:16;101576.06;;;10.79;100.00
73516;BME280;61763;51.416;5.442;2024-02-15T02:05:42;101574.25;;;10.80;100.00
73516;BME280;61763;51.416;5.442;2024-02-15T02:08:07;101573.38;;;10.79;100.00
73516;BME280;61763;51.416;5.442;2024-02-15T02:10:38;101572.19;;;10.86;100.00
73516;BME280;61763;51.416;5.442;2024-02-15T02:13:04;101569.56;;;10.83;100.00
73516;BME280;61763;51.416;5.442;2024-02-15T02:15:31;101565.41;;;10.75;100.00
73516;BME280;61763;51.416;5.442;2024-02-15T02:17:57;101571.97;;;10.69;100.00
73516;BME280;61763;51.416;5.442;2024-02-15T02:20:25;101564.81;;;10.68;100.00
73516;BME280;61763;51.416;5.442;2024-02-15T02:22:53;101570.75;;;10.54;100.00
73516;BME280;61763;51.416;5.442;2024-02-15T02:25:20;101557.94;;;10.59;100.00
73516;BME280;61763;51.416;5.442;2024-02-15T02:27:47;101563.81;;;10.47;100.00
73516;BME280;61763;51.416;5.442;2024-02-15T02:30:15;101567.53;;;10.44;100.00
73516;BME280;61763;51.416;5.442;2024-02-15T02:32:43;101553.91;;;10.47;100.00
73516;BME280;61763;51.416;5.442;2024-02-15T02:35:09;101555.38;;;10.56;100.00
73516;BME280;61763;51.416;5.442;2024-02-15T02:37:37;101559.53;;;10.65;100.00
73516;BME280;61763;51.416;5.442;2024-02-15T02:40:05;101546.22;;;10.60;100.00
73516;BME280;61763;51.416;5.442;2024-02-15T02:42:30;101531.00;;;10.58;100.00
73516;BME280;61763;51.416;5.442;2024-02-15T02:44:55;101534.13;;;10.71;100.00
73516;BME280;61763;51.416;5.442;2024-02-15T02:47:21;101539.00;;;10.61;100.00
73516;BME280;61763;51.416;5.442;2024-02-15T02:49:47;101536.47;;;10.56;100.00
73516;BME280;61763;51.416;5.442;2024-02-15T02:52:12;101531.75;;;10.61;100.00
73516;BME280;61763;51.416;5.442;2024-02-15T02:54:37;101540.88;;;10.59;100.00
73516;BME280;61763;51.416;5.442;2024-02-15T02:57:03;101549.84;;;10.59;100.00
73516;BME280;61763;51.416;5.442;2024-02-15T02:59:33;101538.19;;;10.59;100.00
73516;BME280;61763;51.416;5.442;2024-02-15T03:01:59;101537.16;;;10.61;100.00
73516;BME280;61763;51.416;5.442;2024-02-15T03:04:25;101537.28;;;10.58;100.00
73516;BME280;61763;51.416;5.442;2024-02-15T03:06:50;101538.00;;;10.63;100.00
73516;BME280;61763;51.416;5.442;2024-02-15T03:09:16;101539.00;;;10.61;100.00
73516;BME280;61763;51.416;5.442;2024-02-15T03:11:42;101536.22;;;10.62;100.00
73516;BME280;61763;51.416;5.442;2024-02-15T03:14:07;101530.69;;;10.65;100.00
73516;BME280;61763;51.416;5.442;2024-02-15T03:16:33;101522.66;;;10.64;100.00
73516;BME280;61763;51.416;5.442;2024-02-15T03:18:59;101525.44;;;10.62;100.00
73516;BME280;61763;51.416;5.442;2024-02-15T03:21:27;101526.34;;;10.61;100.00
73516;BME280;61763;51.416;5.442;2024-02-15T03:23:53;101518.09;;;10.66;100.00
73516;BME280;61763;51.416;5.442;2024-02-15T03:26:29;101523.53;;;10.64;100.00
73516;BME280;61763;51.416;5.442;2024-02-15T03:28:55;101529.84;;;10.65;100.00
73516;BME280;61763;51.416;5.442;2024-02-15T03:31:21;101534.41;;;10.63;100.00
73516;BME280;61763;51.416;5.442;2024-02-15T03:33:46;101533.59;;;10.61;100.00
73516;BME280;61763;51.416;5.442;2024-02-15T03:36:16;101531.94;;;10.57;100.00
73516;BME280;61763;51.416;5.442;2024-02-15T03:38:43;101531.88;;;10.58;100.00
73516;BME280;61763;51.416;5.442;2024-02-15T03:41:10;101533.53;;;10.62;100.00
73516;BME280;61763;51.416;5.442;2024-02-15T03:43:35;101523.59;;;10.63;100.00
73516;BME280;61763;51.416;5.442;2024-02-15T03:46:01;101519.22;;;10.60;100.00
73516;BME280;61763;51.416;5.442;2024-02-15T03:48:26;101521.81;;;10.63;100.00
73516;BME280;61763;51.416;5.442;2024-02-15T03:50:51;101522.47;;;10.68;100.00
73516;BME280;61763;51.416;5.442;2024-02-15T03:53:17;101524.94;;;10.75;100.00
73516;BME280;61763;51.416;5.442;2024-02-15T03:55:42;101527.63;;;10.75;100.00
73516;BME280;61763;51.416;5.442;2024-02-15T03:58:08;101520.44;;;10.75;100.00
73516;BME280;61763;51.416;5.442;2024-02-15T04:00:34;101522.34;;;10.72;100.00
73516;BME280;61763;51.416;5.442;2024-02-15T04:02:59;101518.09;;;10.66;100.00
73516;BME280;61763;51.416;5.442;2024-02-15T04:05:26;101524.13;;;10.73;100.00
73516;BME280;61763;51.416;5.442;2024-02-15T04:07:51;101525.75;;;10.77;100.00
73516;BME280;61763;51.416;5.442;2024-02-15T04:10:18;101526.63;;;10.77;100.00
73516;BME280;61763;51.416;5.442;2024-02-15T04:12:44;101528.41;;;10.78;100.00
73516;BME280;61763;51.416;5.442;2024-02-15T04:15:09;101528.34;;;10.80;100.00
73516;BME280;61763;51.416;5.442;2024-02-15T04:17:39;101529.84;;;10.87;100.00
73516;BME280;61763;51.416;5.442;2024-02-15T04:20:06;101524.56;;;10.84;100.00
73516;BME280;61763;51.416;5.442;2024-02-15T04:22:32;101525.81;;;10.75;100.00
73516;BME280;61763;51.416;5.442;2024-02-15T04:25:02;101529.91;;;10.85;100.00
73516;BME280;61763;51.416;5.442;2024-02-15T04:27:27;101519.38;;;10.79;100.00
73516;BME280;61763;51.416;5.442;2024-02-15T04:29:53;101523.19;;;10.74;100.00
73516;BME280;61763;51.416;5.442;2024-02-15T04:32:19;101512.47;;;10.72;100.00
73516;BME280;61763;51.416;5.442;2024-02-15T04:34:44;101505.41;;;10.68;100.00
73516;BME280;61763;51.416;5.442;2024-02-15T04:37:12;101509.94;;;10.67;100.00
73516;BME280;61763;51.416;5.442;2024-02-15T04:39:38;101508.97;;;10.68;100.00
73516;BME280;61763;51.416;5.442;2024-02-15T04:42:05;101511.94;;;10.62;100.00
73516;BME280;61763;51.416;5.442;2024-02-15T04:44:38;101513.75;;;10.62;100.00
73516;BME280;61763;51.416;5.442;2024-02-15T04:47:04;101506.34;;;10.67;100.00
73516;BME280;61763;51.416;5.442;2024-02-15T04:49:30;101501.13;;;10.62;100.00
73516;BME280;61763;51.416;5.442;2024-02-15T04:51:55;101501.31;;;10.58;100.00
73516;BME280;61763;51.416;5.442;2024-02-15T04:54:22;101493.22;;;10.58;100.00
73516;BME280;61763;51.416;5.442;2024-02-15T04:56:48;101496.38;;;10.69;100.00
73516;BME280;61763;51.416;5.442;2024-02-15T04:59:13;101487.38;;;10.68;100.00
73516;BME280;61763;51.416;5.442;2024-02-15T05:01:43;101493.56;;;10.72;100.00
73516;BME280;61763;51.416;5.442;2024-02-15T05:04:12;101495.34;;;10.72;100.00
73516;BME280;61763;51.416;5.442;2024-02-15T05:06:39;101498.13;;;10.70;100.00
73516;BME280;61763;51.416;5.442;2024-02-15T05:09:05;101490.53;;;10.80;100.00
73516;BME280;61763;51.416;5.442;2024-02-15T05:11:36;101482.63;;;10.75;100.00
73516;BME280;61763;51.416;5.442;2024-02-15T05:14:04;101486.00;;;10.80;100.00
73516;BME280;61763;51.416;5.442;2024-02-15T05:16:32;101474.22;;;10.83;100.00
73516;BME280;61763;51.416;5.442;2024-02-15T05:18:58;101488.50;;;10.85;100.00
73516;BME280;61763;51.416;5.442;2024-02-15T05:21:23;101480.66;;;10.79;100.00
73516;BME280;61763;51.416;5.442;2024-02-15T05:23:48;101491.34;;;10.82;100.00
73516;BME280;61763;51.416;5.442;2024-02-15T05:26:14;101488.72;;;10.80;100.00
73516;BME280;61763;51.416;5.442;2024-02-15T05:28:41;101499.56;;;10.79;100.00
73516;BME280;61763;51.416;5.442;2024-02-15T05:31:09;101506.75;;;10.80;100.00
73516;BME280;61763;51.416;5.442;2024-02-15T05:33:37;101504.78;;;10.83;100.00
73516;BME280;61763;51.416;5.442;2024-02-15T05:36:08;101507.84;;;10.74;100.00
73516;BME280;61763;51.416;5.442;2024-02-15T05:38:34;101506.94;;;10.75;100.00
73516;BME280;61763;51.416;5.442;2024-02-15T05:40:59;101507.00;;;10.74;100.00
73516;BME280;61763;51.416;5.442;2024-02-15T05:43:26;101516.03;;;10.73;100.00
73516;BME280;61763;51.416;5.442;2024-02-15T05:45:52;101508.00;;;10.71;100.00
73516;BME280;61763;51.416;5.442;2024-02-15T05:48:18;101507.00;;;10.74;100.00
73516;BME280;61763;51.416;5.442;2024-02-15T05:50:43;101501.78;;;10.69;100.00
73516;BME280;61763;51.416;5.442;2024-02-15T05:53:08;101489.34;;;10.65;100.00
73516;BME280;61763;51.416;5.442;2024-02-15T05:55:34;101486.66;;;10.65;100.00
73516;BME280;61763;51.416;5.442;2024-02-15T05:58:02;101492.03;;;10.65;100.00
73516;BME280;61763;51.416;5.442;2024-02-15T06:00:27;101486.47;;;10.69;100.00
73516;BME280;61763;51.416;5.442;2024-02-15T06:02:55;101488.34;;;10.67;100.00
73516;BME280;61763;51.416;5.442;2024-02-15T06:05:21;101488.44;;;10.64;100.00
73516;BME280;61763;51.416;5.442;2024-02-15T06:07:47;101492.03;;;10.65;100.00
73516;BME280;61763;51.416;5.442;2024-02-15T06:10:12;101483.22;;;10.60;100.00
73516;BME280;61763;51.416;5.442;2024-02-15T06:12:39;101468.81;;;10.61;100.00
73516;BME280;61763;51.416;5.442;2024-02-15T06:15:05;101474.34;;;10.58;100.00
73516;BME280;61763;51.416;5.442;2024-02-15T06:17:37;101467.16;;;10.57;100.00
73516;BME280;61763;51.416;5.442;2024-02-15T06:20:03;101470.78;;;10.57;100.00
73516;BME280;61763;51.416;5.442;2024-02-15T06:22:28;101459.78;;;10.62;100.00
73516;BME280;61763;51.416;5.442;2024-02-15T06:24:55;101462.47;;;10.62;100.00
73516;BME280;61763;51.416;5.442;2024-02-15T06:27:21;101464.22;;;10.63;100.00
73516;BME280;61763;51.416;5.442;2024-02-15T06:29:49;101452.81;;;10.56;100.00
73516;BME280;61763;51.416;5.442;2024-02-15T06:32:33;101449.19;;;10.57;100.00
73516;BME280;61763;51.416;5.442;2024-02-15T06:35:17;101445.44;;;10.60;100.00
73516;BME280;61763;51.416;5.442;2024-02-15T06:38:00;101442.88;;;10.57;100.00
73516;BME280;61763;51.416;5.442;2024-02-15T06:40:44;101433.84;;;10.58;100.00
73516;BME280;61763;51.416;5.442;2024-02-15T06:43:10;101445.31;;;10.63;100.00
73516;BME280;61763;51.416;5.442;2024-02-15T06:45:35;101447.22;;;10.61;100.00
73516;BME280;61763;51.416;5.442;2024-02-15T06:48:02;101448.97;;;10.62;100.00
73516;BME280;61763;51.416;5.442;2024-02-15T06:50:28;101442.53;;;10.66;100.00
73516;BME280;61763;51.416;5.442;2024-02-15T06:52:53;101450.78;;;10.61;100.00
73516;BME280;61763;51.416;5.442;2024-02-15T06:55:20;101449.78;;;10.64;100.00
73516;BME280;61763;51.416;5.442;2024-02-15T06:57:47;101461.72;;;10.58;100.00
73516;BME280;61763;51.416;5.442;2024-02-15T07:00:13;101459.13;;;10.55;100.00
73516;BME280;61763;51.416;5.442;2024-02-15T07:02:43;101464.53;;;10.55;100.00
73516;BME280;61763;51.416;5.442;2024-02-15T07:05:09;101466.38;;;10.55;100.00
73516;BME280;61763;51.416;5.442;2024-02-15T07:07:35;101473.69;;;10.51;100.00
73516;BME280;61763;51.416;5.442;2024-02-15T07:10:01;101468.19;;;10.54;100.00
73516;BME280;61763;51.416;5.442;2024-02-15T07:12:28;101460.97;;;10.55;100.00
73516;BME280;61763;51.416;5.442;2024-02-15T07:14:53;101449.19;;;10.57;100.00
73516;BME280;61763;51.416;5.442;2024-02-15T07:17:20;101435.75;;;10.56;100.00
73516;BME280;61763;51.416;5.442;2024-02-15T07:19:45;101433.97;;;10.55;100.00
73516;BME280;61763;51.416;5.442;2024-02-15T07:22:17;101417.53;;;10.61;100.00
73516;BME280;61763;51.416;5.442;2024-02-15T07:24:43;101415.69;;;10.61;100.00
73516;BME280;61763;51.416;5.442;2024-02-15T07:27:08;101418.41;;;10.61;100.00
73516;BME280;61763;51.416;5.442;2024-02-15T07:29:35;101427.19;;;10.66;100.00
73516;BME280;61763;51.416;5.442;2024-02-15T07:32:02;101439.00;;;10.64;100.00
73516;BME280;61763;51.416;5.442;2024-02-15T07:34:31;101433.53;;;10.65;100.00
73516;BME280;61763;51.416;5.442;2024-02-15T07:36:58;101434.38;;;10.67;100.00
73516;BME280;61763;51.416;5.442;2024-02-15T07:39:24;101440.75;;;10.65;100.00
73516;BME280;61763;51.416;5.442;2024-02-15T07:41:52;101438.78;;;10.68;100.00
73516;BME280;61763;51.416;5.442;2024-02-15T07:44:18;101438.13;;;10.63;100.00
73516;BME280;61763;51.416;5.442;2024-02-15T07:46:43;101455.31;;;10.61;100.00
73516;BME280;61763;51.416;5.442;2024-02-15T07:49:09;101450.91;;;10.58;100.00
73516;BME280;61763;51.416;5.442;2024-02-15T07:51:34;101450.84;;;10.60;100.00
73516;BME280;61763;51.416;5.442;2024-02-15T07:54:01;101456.31;;;10.58;100.00
73516;BME280;61763;51.416;5.442;2024-02-15T07:56:26;101447.34;;;10.58;100.00
73516;BME280;61763;51.416;5.442;2024-02-15T07:58:52;101454.50;;;10.59;100.00
73516;BME280;61763;51.416;5.442;2024-02-15T08:01:18;101451.63;;;10.63;100.00
73516;BME280;61763;51.416;5.442;2024-02-15T08:03:46;101480.31;;;10.66;100.00
73516;BME280;61763;51.416;5.442;2024-02-15T08:06:12;101461.28;;;10.69;100.00
73516;BME280;61763;51.416;5.442;2024-02-15T08:08:39;101458.28;;;10.77;100.00
73516;BME280;61763;51.416;5.442;2024-02-15T08:11:06;101448.06;;;10.83;100.00
73516;BME280;61763;51.416;5.442;2024-02-15T08:13:35;101450.69;;;10.86;100.00
73516;BME280;61763;51.416;5.442;2024-02-15T08:16:03;101446.06;;;10.89;100.00
73516;BME280;61763;51.416;5.442;2024-02-15T08:18:30;101441.41;;;10.92;100.00
73516;BME280;61763;51.416;5.442;2024-02-15T08:20:57;101446.81;;;10.92;100.00
73516;BME280;61763;51.416;5.442;2024-02-15T08:23:22;101443.09;;;10.95;100.00
73516;BME280;61763;51.416;5.442;2024-02-15T08:25:48;101431.38;;;10.96;100.00
73516;BME280;61763;51.416;5.442;2024-02-15T08:28:13;101428.47;;;11.00;100.00
73516;BME280;61763;51.416;5.442;2024-02-15T08:30:38;101431.03;;;11.03;100.00
73516;BME280;61763;51.416;5.442;2024-02-15T08:33:04;101420.09;;;11.07;100.00
73516;BME280;61763;51.416;5.442;2024-02-15T08:35:29;101427.94;;;11.13;100.00
73516;BME280;61763;51.416;5.442;2024-02-15T08:37:55;101419.09;;;11.30;100.00
73516;BME280;61763;51.416;5.442;2024-02-15T08:40:21;101420.09;;;11.27;100.00
73516;BME280;61763;51.416;5.442;2024-02-15T08:42:50;101404.75;;;11.28;100.00
73516;BME280;61763;51.416;5.442;2024-02-15T08:45:16;101408.38;;;11.28;100.00
73516;BME280;61763;51.416;5.442;2024-02-15T08:47:42;101408.69;;;11.41;100.00
73516;BME280;61763;51.416;5.442;2024-02-15T08:50:09;101408.00;;;11.36;100.00
73516;BME280;61763;51.416;5.442;2024-02-15T08:52:35;101409.91;;;11.34;100.00
73516;BME280;61763;51.416;5.442;2024-02-15T08:55:05;101404.97;;;11.44;100.00
73516;BME280;61763;51.416;5.442;2024-02-15T08:57:32;101405.09;;;11.40;100.00
73516;BME280;61763;51.416;5.442;2024-02-15T08:59:57;101401.59;;;11.38;100.00
73516;BME280;61763;51.416;5.442;2024-02-15T09:02:23;101395.19;;;11.41;100.00
73516;BME280;61763;51.416;5.442;2024-02-15T09:04:48;101401.03;;;11.51;100.00
73516;BME280;61763;51.416;5.442;2024-02-15T09:07:14;101389.75;;;11.62;100.00
73516;BME280;61763;51.416;5.442;2024-02-15T09:09:39;101395.16;;;11.62;100.00
73516;BME280;61763;51.416;5.442;2024-02-15T09:12:05;101396.16;;;11.59;100.00
73516;BME280;61763;51.416;5.442;2024-02-15T09:14:32;101400.50;;;11.63;100.00
73516;BME280;61763;51.416;5.442;2024-02-15T09:16:58;101396.34;;;11.75;100.00
73516;BME280;61763;51.416;5.442;2024-02-15T09:19:23;101396.69;;;11.86;100.00
73516;BME280;61763;51.416;5.442;2024-02-15T09:21:49;101399.13;;;11.92;100.00
73516;BME280;61763;51.416;5.442;2024-02-15T09:24:14;101396.44;;;11.92;100.00
73516;BME280;61763;51.416;5.442;2024-02-15T09:26:42;101400.69;;;11.98;100.00
73516;BME280;61763;51.416;5.442;2024-02-15T09:29:07;101399.44;;;12.05;100.00
73516;BME280;61763;51.416;5.442;2024-02-15T09:31:33;101401.28;;;12.05;100.00
73516;BME280;61763;51.416;5.442;2024-02-15T09:34:00;101402.06;;;12.07;100.00
73516;BME280;61763;51.416;5.442;2024-02-15T09:36:25;101394.47;;;12.15;100.00
73516;BME280;61763;51.416;5.442;2024-02-15T09:38:50;101394.47;;;12.15;100.00
73516;BME280;61763;51.416;5.442;2024-02-15T09:41:16;101398.13;;;12.14;100.00
73516;BME280;61763;51.416;5.442;2024-02-15T09:43:42;101392.34;;;12.22;100.00
73516;BME280;61763;51.416;5.442;2024-02-15T09:46:08;101403.16;;;12.22;100.00
73516;BME280;61763;51.416;5.442;2024-02-15T09:48:34;101400.44;;;12.22;100.00
73516;BME280;61763;51.416;5.442;2024-02-15T09:50:59;101403.03;;;12.25;100.00
73516;BME280;61763;51.416;5.442;2024-02-15T09:53:26;101405.38;;;12.14;100.00
73516;BME280;61763;51.416;5.442;2024-02-15T09:55:54;101401.94;;;12.10;100.00
73516;BME280;61763;51.416;5.442;2024-02-15T09:58:20;101392.13;;;12.26;100.00
73516;BME280;61763;51.416;5.442;2024-02-15T10:00:48;101390.75;;;12.18;100.00
73516;BME280;61763;51.416;5.442;2024-02-15T10:03:18;101394.03;;;12.24;100.00
73516;BME280;61763;51.416;5.442;2024-02-15T10:05:43;101397.88;;;12.38;100.00
73516;BME280;61763;51.416;5.442;2024-02-15T10:08:09;101394.53;;;12.33;100.00
73516;BME280;61763;51.416;5.442;2024-02-15T10:10:36;101386.03;;;12.40;100.00
73516;BME280;61763;51.416;5.442;2024-02-15T10:13:01;101386.78;;;12.44;100.00
73516;BME280;61763;51.416;5.442;2024-02-15T10:15:28;101386.38;;;12.52;100.00
73516;BME280;61763;51.416;5.442;2024-02-15T10:17:55;101386.88;;;12.60;100.00
73516;BME280;61763;51.416;5.442;2024-02-15T10:20:21;101379.31;;;12.67;100.00
73516;BME280;61763;51.416;5.442;2024-02-15T10:22:58;101386.63;;;12.65;100.00
73516;BME280;61763;51.416;5.442;2024-02-15T10:25:38;101379.59;;;12.79;100.00
73516;BME280;61763;51.416;5.442;2024-02-15T10:28:21;101389.06;;;12.88;100.00
73516;BME280;61763;51.416;5.442;2024-02-15T10:30:51;101388.84;;;13.10;100.00
73516;BME280;61763;51.416;5.442;2024-02-15T10:33:27;101380.06;;;13.05;100.00
73516;BME280;61763;51.416;5.442;2024-02-15T10:38:33;101377.09;;;13.45;100.00
73516;BME280;61763;51.416;5.442;2024-02-15T10:41:07;101382.44;;;13.46;100.00
73516;BME280;61763;51.416;5.442;2024-02-15T10:43:34;101380.06;;;13.40;100.00
73516;BME280;61763;51.416;5.442;2024-02-15T10:46:00;101384.88;;;13.33;100.00
73516;BME280;61763;51.416;5.442;2024-02-15T10:48:26;101392.47;;;13.27;100.00
73516;BME280;61763;51.416;5.442;2024-02-15T10:50:56;101376.13;;;13.28;100.00
73516;BME280;61763;51.416;5.442;2024-02-15T10:53:26;101381.94;;;13.38;100.00
73516;BME280;61763;51.416;5.442;2024-02-15T10:56:11;101366.16;;;13.46;100.00
73516;BME280;61763;51.416;5.442;2024-02-15T10:58:47;101364.88;;;13.54;100.00
73516;BME280;61763;51.416;5.442;2024-02-15T11:01:17;101363.53;;;13.78;100.00
73516;BME280;61763;51.416;5.442;2024-02-15T11:04:05;101361.44;;;13.99;100.00
73516;BME280;61763;51.416;5.442;2024-02-15T11:06:33;101360.13;;;13.91;100.00
73516;BME280;61763;51.416;5.442;2024-02-15T11:09:00;101351.63;;;13.97;100.00
73516;BME280;61763;51.416;5.442;2024-02-15T11:11:29;101355.91;;;14.01;100.00
73516;BME280;61763;51.416;5.442;2024-02-15T11:14:27;101351.88;;;13.92;100.00
73516;BME280;61763;51.416;5.442;2024-02-15T11:16:57;101349.34;;;13.89;100.00
73516;BME280;61763;51.416;5.442;2024-02-15T11:22:01;101335.78;;;14.21;100.00
73516;BME280;61763;51.416;5.442;2024-02-15T11:24:32;101343.31;;;14.16;100.00
73516;BME280;61763;51.416;5.442;2024-02-15T11:27:02;101337.31;;;14.41;100.00
73516;BME280;61763;51.416;5.442;2024-02-15T11:29:52;101339.19;;;14.41;100.00
73516;BME280;61763;51.416;5.442;2024-02-15T11:40:16;101325.38;;;14.60;100.00
73516;BME280;61763;51.416;5.442;2024-02-15T11:42:43;101327.75;;;14.66;100.00
73516;BME280;61763;51.416;5.442;2024-02-15T11:45:09;101315.56;;;14.73;100.00
73516;BME280;61763;51.416;5.442;2024-02-15T11:47:38;101310.22;;;14.71;100.00
73516;BME280;61763;51.416;5.442;2024-02-15T11:50:09;101308.84;;;14.95;100.00
73516;BME280;61763;51.416;5.442;2024-02-15T11:52:40;101303.78;;;15.03;100.00
73516;BME280;61763;51.416;5.442;2024-02-15T11:55:08;101301.94;;;15.18;100.00
73516;BME280;61763;51.416;5.442;2024-02-15T11:57:56;101295.25;;;15.23;100.00
73516;BME280;61763;51.416;5.442;2024-02-15T12:00:29;101295.56;;;15.33;100.00
73516;BME280;61763;51.416;5.442;2024-02-15T12:03:14;101302.72;;;15.49;100.00
73516;BME280;61763;51.416;5.442;2024-02-15T12:05:59;101288.66;;;15.56;100.00
73516;BME280;61763;51.416;5.442;2024-02-15T12:08:45;101287.19;;;15.65;100.00
73516;BME280;61763;51.416;5.442;2024-02-15T12:11:28;101290.91;;;15.79;100.00
73516;BME280;61763;51.416;5.442;2024-02-15T12:14:14;101280.19;;;15.75;100.00
73516;BME280;61763;51.416;5.442;2024-02-15T12:17:06;101276.97;;;15.83;100.00
73516;BME280;61763;51.416;5.442;2024-02-15T12:19:52;101274.69;;;16.04;100.00
73516;BME280;61763;51.416;5.442;2024-02-15T12:24:58;101268.69;;;15.99;100.00
73516;BME280;61763;51.416;5.442;2024-02-15T12:27:26;101265.84;;;16.01;100.00
73516;BME280;61763;51.416;5.442;2024-02-15T12:29:59;101264.00;;;16.01;100.00
73516;BME280;61763;51.416;5.442;2024-02-15T12:32:26;101253.03;;;15.88;100.00
73516;BME280;61763;51.416;5.442;2024-02-15T12:35:10;101242.78;;;16.06;100.00
73516;BME280;61763;51.416;5.442;2024-02-15T12:37:42;101254.25;;;15.84;100.00
73516;BME280;61763;51.416;5.442;2024-02-15T12:40:17;101251.75;;;15.94;100.00
73516;BME280;61763;51.416;5.442;2024-02-15T12:42:44;101247.13;;;15.96;100.00
73516;BME280;61763;51.416;5.442;2024-02-15T12:45:16;101251.41;;;16.13;100.00
73516;BME280;61763;51.416;5.442;2024-02-15T12:47:55;101246.16;;;16.10;100.00
73516;BME280;61763;51.416;5.442;2024-02-15T12:50:22;101241.59;;;16.10;100.00
73516;BME280;61763;51.416;5.442;2024-02-15T12:52:48;101233.91;;;16.17;100.00
73516;BME280;61763;51.416;5.442;2024-02-15T12:57:46;101229.72;;;16.39;100.00
73516;BME280;61763;51.416;5.442;2024-02-15T13:00:15;101229.56;;;16.27;100.00
73516;BME280;61763;51.416;5.442;2024-02-15T13:02:49;101227.81;;;16.26;100.00